M I D A S
Marine Information and Data Acquisition System
Tripno 1779 of the Zeeleeuw from 2009-09-17 06:40:37 to 2009-09-17 13:40:42
Back to CruiseResearch ActivitiesStationsMapUnderway DataData graphs

EquipmentUnitsComment
TimeDGPSUTC
LatitudeDGPSDM.mWGS84
LongitudeDGPSDM.mWGS84
HeadingGyrodeg 
SOGDGPSknotsSpeed over ground
COGDGPSdegCourse over ground
DepthEcho soundermeters200 kHz
Missing or incorrect values are displayed as -999
Navigation data collected by the RV Zeeleeuw from 2009-09-17 06:42:19 to 2009-09-17 13:50:49
                                                                                    Next 1000 lines
Time Latitude Longitude Heading SOG COG Depth
2009-09-17 06:42:29 51°13.663 2°55.952 110.8 1.1 280 7.1
2009-09-17 06:42:33 51°13.664 2°55.949 110.9 1.5 291 5.4
2009-09-17 06:42:38 51°13.664 2°55.946 111.4 1.8 287 -999
2009-09-17 06:42:44 51°13.665 2°55.941 111.9 2 290 -999
2009-09-17 06:42:50 51°13.666 2°55.935 112.1 2.2 289 -999
2009-09-17 06:42:56 51°13.668 2°55.929 112.1 2.5 292 -999
2009-09-17 06:43:01 51°13.669 2°55.923 111.9 2.7 289 -999
2009-09-17 06:43:07 51°13.671 2°55.916 111.6 2.9 289 -999
2009-09-17 06:43:12 51°13.672 2°55.91 111.1 3 289 -999
2009-09-17 06:43:17 51°13.674 2°55.903 110.9 3.2 288 -999
2009-09-17 06:43:22 51°13.675 2°55.896 110.9 3.4 289 -999
2009-09-17 06:43:27 51°13.677 2°55.888 111.8 3.6 289 -999
2009-09-17 06:43:32 51°13.679 2°55.881 113.2 3.7 291 -999
2009-09-17 06:43:37 51°13.681 2°55.873 115 3.8 291 -999
2009-09-17 06:43:42 51°13.683 2°55.865 116.7 3.9 294 -999
2009-09-17 06:43:47 51°13.685 2°55.857 118.6 3.9 295 -999
2009-09-17 06:43:52 51°13.688 2°55.849 120.6 4 298 -999
2009-09-17 06:43:57 51°13.691 2°55.842 122.3 4 299 -999
2009-09-17 06:44:02 51°13.694 2°55.834 123.3 4 300 -999
2009-09-17 06:44:07 51°13.696 2°55.826 124 4.1 300 -999
2009-09-17 06:44:12 51°13.698 2°55.818 124.8 4.2 302 -999
2009-09-17 06:44:17 51°13.701 2°55.811 126.2 4.2 302 -999
2009-09-17 06:44:23 51°13.704 2°55.801 127.3 4.3 304 -999
2009-09-17 06:44:27 51°13.707 2°55.795 128.6 4.4 304 -999
2009-09-17 06:44:32 51°13.71 2°55.787 130 4.4 307 -999
2009-09-17 06:44:37 51°13.714 2°55.779 131.5 4.5 306 -999
2009-09-17 06:44:42 51°13.718 2°55.771 132.3 4.5 309 -999
2009-09-17 06:44:47 51°13.722 2°55.764 133.7 4.5 310 -999
2009-09-17 06:44:52 51°13.726 2°55.756 135.3 4.5 312 -999
2009-09-17 06:44:57 51°13.731 2°55.749 136.5 4.5 312 -999
2009-09-17 06:45:02 51°13.735 2°55.741 137.4 4.6 314 -999
2009-09-17 06:45:07 51°13.74 2°55.734 139 4.6 316 -999
2009-09-17 06:45:12 51°13.745 2°55.727 140.9 4.6 318 -999
2009-09-17 06:45:17 51°13.749 2°55.721 142.8 4.3 320 -999
2009-09-17 06:45:22 51°13.754 2°55.716 144.5 3.9 323 -999
2009-09-17 06:45:27 51°13.758 2°55.711 147 3.5 325 -999
2009-09-17 06:45:32 51°13.761 2°55.708 149.2 2.7 322 -999
2009-09-17 06:45:37 51°13.764 2°55.705 149.7 2.5 325 -999
2009-09-17 06:45:42 51°13.767 2°55.701 149.6 2.8 325 -999
2009-09-17 06:45:47 51°13.771 2°55.698 150.6 3 328 -999
2009-09-17 06:45:52 51°13.774 2°55.694 150.9 3.2 327 10.8
2009-09-17 06:45:57 51°13.778 2°55.69 150.9 3.3 327 10.7
2009-09-17 06:46:02 51°13.782 2°55.686 150.9 3.6 328 -999
2009-09-17 06:46:07 51°13.787 2°55.681 151.1 3.8 330 -999
2009-09-17 06:46:12 51°13.791 2°55.677 151.5 3.9 330 -999
2009-09-17 06:46:17 51°13.796 2°55.673 151.5 3.9 330 -999
2009-09-17 06:46:22 51°13.801 2°55.668 151.3 4.1 330 -999
2009-09-17 06:46:27 51°13.806 2°55.663 151 4.2 330 -999
2009-09-17 06:46:32 51°13.812 2°55.659 151 4.4 330 -999
2009-09-17 06:46:37 51°13.817 2°55.654 151 4.5 330 -999
2009-09-17 06:46:43 51°13.823 2°55.648 151 4.6 329 -999
2009-09-17 06:46:47 51°13.828 2°55.644 151.1 4.6 330 -999
2009-09-17 06:46:52 51°13.833 2°55.639 151.5 4.6 329 -999
2009-09-17 06:46:57 51°13.839 2°55.634 152.2 4.7 330 -999
2009-09-17 06:47:03 51°13.846 2°55.628 152.9 4.7 331 -999
2009-09-17 06:47:07 51°13.85 2°55.623 154.5 4.7 332 -999
2009-09-17 06:47:12 51°13.856 2°55.619 156.1 4.6 333 -999
2009-09-17 06:47:17 51°13.862 2°55.614 158.3 4.5 335 -999
2009-09-17 06:47:22 51°13.867 2°55.611 160.5 4.4 337 -999
2009-09-17 06:47:27 51°13.873 2°55.607 163.4 4.3 340 -999
2009-09-17 06:47:32 51°13.878 2°55.604 167.1 4.2 342 -999
2009-09-17 06:47:37 51°13.884 2°55.602 169.9 4 346 -999
2009-09-17 06:47:42 51°13.889 2°55.6 173.3 3.9 348 -999
2009-09-17 06:47:47 51°13.894 2°55.599 177.9 3.8 351 -999
2009-09-17 06:47:52 51°13.899 2°55.598 181.3 3.7 355 -999
2009-09-17 06:47:57 51°13.904 2°55.597 184.6 3.5 358 -999
2009-09-17 06:48:02 51°13.909 2°55.597 187.3 3.4 -999 -999
2009-09-17 06:48:07 51°13.914 2°55.598 191.3 3.2 4 -999
2009-09-17 06:48:12 51°13.918 2°55.598 194.2 3.1 6 -999
2009-09-17 06:48:17 51°13.922 2°55.599 197.7 2.9 10 -999
2009-09-17 06:48:22 51°13.926 2°55.601 201 2.8 13 -999
2009-09-17 06:48:27 51°13.929 2°55.602 204.2 2.6 16 -999
2009-09-17 06:48:32 51°13.933 2°55.604 206.5 2.5 17 -999
2009-09-17 06:48:37 51°13.936 2°55.605 208.1 2.4 19 -999
2009-09-17 06:48:43 51°13.939 2°55.608 210 2.2 20 -999
2009-09-17 06:48:47 51°13.941 2°55.609 212 1.9 21 10.5
2009-09-17 06:48:52 51°13.943 2°55.61 213.5 1.7 23 10.4
2009-09-17 06:48:57 51°13.945 2°55.612 214.5 1.5 22 10.5
2009-09-17 06:49:02 51°13.947 2°55.613 216.3 1.2 20 10.3
2009-09-17 06:49:07 51°13.948 2°55.613 218.3 0.9 18 10.1
2009-09-17 06:49:12 51°13.949 2°55.613 220.5 0.5 358 10.1
2009-09-17 06:49:17 51°13.949 2°55.613 222.8 0.4 325 10.2
2009-09-17 06:49:22 51°13.95 2°55.612 227.4 0.4 287 10.2
2009-09-17 06:49:27 51°13.949 2°55.61 232 0.7 261 10.2
2009-09-17 06:49:32 51°13.949 2°55.608 237 1 262 10.2
2009-09-17 06:49:36 51°13.949 2°55.606 242.2 1.3 261 10.3
2009-09-17 06:49:41 51°13.949 2°55.603 247.6 1.5 262 10.6
2009-09-17 06:49:46 51°13.949 2°55.599 252.3 1.8 265 10.6
2009-09-17 06:49:51 51°13.948 2°55.595 259.2 2 268 9.9
2009-09-17 06:49:56 51°13.949 2°55.59 265 2.2 274 10.5
2009-09-17 06:50:01 51°13.949 2°55.584 271 2.3 278 10.7
2009-09-17 06:50:06 51°13.95 2°55.579 276.8 2.5 285 11
2009-09-17 06:50:11 51°13.951 2°55.573 282.9 2.7 290 10.6
2009-09-17 06:50:16 51°13.953 2°55.568 288.9 2.9 294 10.8
2009-09-17 06:50:21 51°13.955 2°55.562 294.7 3 299 10.9
2009-09-17 06:50:25 51°13.957 2°55.557 300.6 3.1 305 10.8
2009-09-17 06:50:31 51°13.96 2°55.551 306.6 3.3 311 10.9
2009-09-17 06:50:36 51°13.964 2°55.545 312.9 3.7 320 10.6
2009-09-17 06:50:41 51°13.968 2°55.54 319.9 4 323 11
2009-09-17 06:50:45 51°13.972 2°55.535 325.2 4.5 325 10.9
2009-09-17 06:50:50 51°13.978 2°55.53 329.3 5 330 10.9
2009-09-17 06:50:56 51°13.986 2°55.523 332.6 5.5 329 10.9
2009-09-17 06:51:00 51°13.992 2°55.518 333.8 6 331 10.8
2009-09-17 06:51:05 51°14 2°55.511 334 6.5 331 10.6
2009-09-17 06:51:10 51°14.008 2°55.503 334 6.9 331 10.7
2009-09-17 06:51:15 51°14.017 2°55.495 334.5 7.2 333 10.7
2009-09-17 06:51:20 51°14.026 2°55.487 334.9 7.7 332 10.8
2009-09-17 06:51:25 51°14.036 2°55.479 334.7 8 332 10.5
2009-09-17 06:51:30 51°14.046 2°55.47 335 8.4 332 10.4
2009-09-17 06:51:35 51°14.057 2°55.461 335.1 8.8 332 10.4
2009-09-17 06:51:40 51°14.068 2°55.451 334.4 9.1 330 10.5
2009-09-17 06:51:45 51°14.079 2°55.441 333.9 9.3 332 10.4
2009-09-17 06:51:49 51°14.088 2°55.434 334.5 9.4 331 9.5
2009-09-17 06:51:55 51°14.103 2°55.422 334.5 9.6 332 10.4
2009-09-17 06:52:00 51°14.115 2°55.412 334.7 9.7 331 10.2
2009-09-17 06:52:04 51°14.124 2°55.404 334.2 9.8 330 10.3
2009-09-17 06:52:09 51°14.136 2°55.393 333.8 9.9 331 10.5
2009-09-17 06:52:14 51°14.148 2°55.382 333.8 9.9 331 10.4
2009-09-17 06:52:19 51°14.16 2°55.371 334.3 9.8 329 10.1
2009-09-17 06:52:24 51°14.171 2°55.359 332.6 9.9 328 10.4
2009-09-17 06:52:29 51°14.182 2°55.347 330 9.9 325 10.5
2009-09-17 06:52:34 51°14.194 2°55.334 328.4 9.8 326 10.5
2009-09-17 06:52:39 51°14.205 2°55.321 328.4 9.8 323 10.4
2009-09-17 06:52:44 51°14.216 2°55.308 326 9.8 321 10.3
2009-09-17 06:52:49 51°14.226 2°55.294 324.4 9.9 319 10.2
2009-09-17 06:52:54 51°14.236 2°55.279 322.3 9.9 318 10
2009-09-17 06:52:59 51°14.246 2°55.264 321.2 9.8 317 9.9
2009-09-17 06:53:04 51°14.256 2°55.248 320.5 10.1 314 11.1
2009-09-17 06:53:09 51°14.265 2°55.232 319.2 10 314 11.1
2009-09-17 06:53:13 51°14.272 2°55.218 316.1 10.2 310 10.4
2009-09-17 06:53:18 51°14.282 2°55.2 313.2 10.3 309 10.1
2009-09-17 06:53:24 51°14.292 2°55.179 311.9 10.6 308 10.1
2009-09-17 06:53:29 51°14.302 2°55.16 311.7 10.7 309 10.1
2009-09-17 06:53:33 51°14.309 2°55.145 311.6 10.8 308 10.5
2009-09-17 06:53:39 51°14.32 2°55.123 312 10.8 309 10.4
2009-09-17 06:53:44 51°14.33 2°55.104 311.5 10.9 308 10.4
2009-09-17 06:53:49 51°14.339 2°55.086 310.7 10.9 308 10.2
2009-09-17 06:53:53 51°14.346 2°55.07 310.3 10.9 306 10.3
2009-09-17 06:53:58 51°14.355 2°55.05 309.5 10.6 305 9.8
2009-09-17 06:54:04 51°14.365 2°55.027 307.8 10.7 305 9.8
2009-09-17 06:54:09 51°14.373 2°55.008 307.7 10.7 304 9.4
2009-09-17 06:54:13 51°14.379 2°54.992 308 10.5 303 8.5
2009-09-17 06:54:18 51°14.387 2°54.973 307.4 10.1 303 8.6
2009-09-17 06:54:24 51°14.396 2°54.951 306.4 10.1 303 9
2009-09-17 06:54:29 51°14.404 2°54.932 307.5 10.3 306 9.7
2009-09-17 06:54:34 51°14.413 2°54.914 310 10.3 307 9.8
2009-09-17 06:54:39 51°14.422 2°54.896 312.8 10.5 309 10
2009-09-17 06:54:44 51°14.432 2°54.879 315.4 10.6 312 9.9
2009-09-17 06:54:48 51°14.44 2°54.865 318.2 10.6 312 9.9
2009-09-17 06:54:54 51°14.452 2°54.844 320.4 10.6 313 9.6
2009-09-17 06:54:59 51°14.463 2°54.827 321.6 10.8 314 9.8
2009-09-17 06:55:04 51°14.473 2°54.811 323.4 10.7 316 9.5
2009-09-17 06:55:08 51°14.482 2°54.798 325.4 10.7 318 9.4
2009-09-17 06:55:14 51°14.495 2°54.779 328 10.7 319 9.7
2009-09-17 06:55:19 51°14.507 2°54.764 329 10.7 320 10
2009-09-17 06:55:24 51°14.518 2°54.749 329.8 10.7 320 10.1
2009-09-17 06:55:28 51°14.528 2°54.737 330.6 10.8 320 9.7
2009-09-17 06:55:34 51°14.541 2°54.717 329.6 10.9 318 9.7
2009-09-17 06:55:39 51°14.553 2°54.703 329.5 10.7 320 9.3
2009-09-17 06:55:44 51°14.564 2°54.688 329.5 10.4 319 9.4
2009-09-17 06:55:48 51°14.572 2°54.675 329.6 10.5 320 10.2
2009-09-17 06:55:53 51°14.583 2°54.66 329.3 10.6 320 9.7
2009-09-17 06:55:59 51°14.597 2°54.641 329.4 10.6 320 9.6
2009-09-17 06:56:04 51°14.608 2°54.626 329.6 10.7 319 9.8
2009-09-17 06:56:09 51°14.619 2°54.609 329 10.9 318 9.7
2009-09-17 06:56:13 51°14.628 2°54.597 328.9 10.8 319 9.1
2009-09-17 06:56:18 51°14.64 2°54.582 329.6 10.7 319 9.5
2009-09-17 06:56:24 51°14.653 2°54.564 329.6 10.7 320 9.5
2009-09-17 06:56:29 51°14.665 2°54.549 330.4 10.7 321 9.4
2009-09-17 06:56:33 51°14.674 2°54.537 331.1 10.6 322 10.2
2009-09-17 06:56:38 51°14.686 2°54.522 331.8 10.8 320 9.6
2009-09-17 06:56:44 51°14.7 2°54.504 331.5 10.7 322 9.4
2009-09-17 06:56:49 51°14.712 2°54.489 331.9 10.8 323 9.6
2009-09-17 06:56:53 51°14.721 2°54.478 332.8 10.8 323 9.6
2009-09-17 06:56:58 51°14.733 2°54.464 333.4 10.8 323 9.4
2009-09-17 06:57:04 51°14.748 2°54.447 333.1 10.7 323 9.5
2009-09-17 06:57:09 51°14.759 2°54.432 333.4 10.6 323 9.7
2009-09-17 06:57:13 51°14.769 2°54.421 333.5 10.7 323 10.1
2009-09-17 06:57:18 51°14.781 2°54.407 333.7 10.7 323 9.5
2009-09-17 06:57:24 51°14.795 2°54.39 333.6 10.8 323 9.6
2009-09-17 06:57:28 51°14.805 2°54.378 333.6 10.8 324 9.6
2009-09-17 06:57:33 51°14.817 2°54.364 333.9 10.8 324 9.4
2009-09-17 06:57:39 51°14.831 2°54.347 333.7 10.9 324 9.6
2009-09-17 06:57:44 51°14.844 2°54.334 334.3 10.7 324 9
2009-09-17 06:57:48 51°14.853 2°54.322 333.8 10.7 323 9.2
2009-09-17 06:57:53 51°14.865 2°54.308 333.9 10.7 323 9.1
2009-09-17 06:57:59 51°14.879 2°54.292 333.9 10.7 324 9.5
2009-09-17 06:58:04 51°14.892 2°54.279 334.7 10.6 326 9.5
2009-09-17 06:58:08 51°14.901 2°54.268 335 10.6 323 8.8
2009-09-17 06:58:13 51°14.913 2°54.254 334.3 10.6 325 8.5
2009-09-17 06:58:18 51°14.924 2°54.24 334.7 10.6 325 8.7
2009-09-17 06:58:24 51°14.938 2°54.223 334.3 10.5 325 8.1
2009-09-17 06:58:29 51°14.951 2°54.212 336.1 10.4 330 8.2
2009-09-17 06:58:33 51°14.96 2°54.201 337.8 10.5 327 8.1
2009-09-17 06:58:38 51°14.973 2°54.19 338.1 10.3 329 7.9
2009-09-17 06:58:44 51°14.987 2°54.175 338.7 10.3 327 8.4
2009-09-17 06:58:49 51°14.999 2°54.163 339 10.3 328 8.8
2009-09-17 06:58:53 51°15.009 2°54.154 339.9 10.3 328 8.3
2009-09-17 06:58:58 51°15.021 2°54.142 340.3 10.1 329 8.1
2009-09-17 06:59:04 51°15.036 2°54.128 341 10.1 328 8.9
2009-09-17 06:59:09 51°15.048 2°54.116 340.9 10.2 329 8.3
2009-09-17 06:59:13 51°15.057 2°54.107 340.9 10.2 328 8.2
2009-09-17 06:59:18 51°15.069 2°54.095 341 10.1 329 8.5
2009-09-17 06:59:24 51°15.084 2°54.081 341.6 10.2 328 9.4
2009-09-17 06:59:29 51°15.096 2°54.07 341.2 9.9 329 8.8
2009-09-17 06:59:33 51°15.105 2°54.062 342.4 9.7 330 8.1
2009-09-17 06:59:38 51°15.117 2°54.051 342.5 9.7 331 8.7
2009-09-17 06:59:44 51°15.131 2°54.038 342.6 10 330 8.7
2009-09-17 06:59:49 51°15.143 2°54.027 342 9.9 331 9.3
2009-09-17 06:59:53 51°15.152 2°54.018 342.1 9.9 330 9.2
2009-09-17 06:59:58 51°15.164 2°54.008 341.9 9.8 330 8.6
2009-09-17 07:00:04 51°15.178 2°53.994 342.1 10 329 8.9
2009-09-17 07:00:09 51°15.19 2°53.983 341.6 10.1 329 9
2009-09-17 07:00:13 51°15.199 2°53.973 341.6 10 330 8.6
2009-09-17 07:00:18 51°15.212 2°53.963 342.4 10 332 8.6
2009-09-17 07:00:24 51°15.226 2°53.95 342.9 10 332 8.7
2009-09-17 07:00:29 51°15.239 2°53.94 342.7 10.1 331 8.6
2009-09-17 07:00:33 51°15.248 2°53.931 341.9 10.3 331 9.1
2009-09-17 07:00:38 51°15.261 2°53.92 342.1 10.3 331 8.4
2009-09-17 07:00:44 51°15.276 2°53.907 342.4 10.2 331 8.8
2009-09-17 07:00:49 51°15.288 2°53.895 341.4 10.3 330 9
2009-09-17 07:00:54 51°15.301 2°53.885 341.6 10.3 332 9.2
2009-09-17 07:00:58 51°15.311 2°53.875 342.2 10.4 330 8.9
2009-09-17 07:01:04 51°15.326 2°53.861 341.5 10.4 329 9.4
2009-09-17 07:01:09 51°15.338 2°53.85 341.5 10.4 330 9.6
2009-09-17 07:01:14 51°15.351 2°53.838 341.7 10.3 330 9.7
2009-09-17 07:01:18 51°15.36 2°53.829 341.7 10.2 329 9.2
2009-09-17 07:01:24 51°15.375 2°53.815 341.6 10.3 328 9.1
2009-09-17 07:01:29 51°15.387 2°53.803 342.1 10.1 329 9.1
2009-09-17 07:01:34 51°15.399 2°53.791 341.3 10.3 327 9.6
2009-09-17 07:01:38 51°15.408 2°53.781 341.1 10.3 328 9.8
2009-09-17 07:01:44 51°15.423 2°53.767 341.7 10.3 329 9.9
2009-09-17 07:01:48 51°15.433 2°53.757 341.5 10.4 329 9.7
2009-09-17 07:01:54 51°15.448 2°53.743 341.7 10.3 329 9.5
2009-09-17 07:01:59 51°15.46 2°53.731 342.3 10.5 328 9.9
2009-09-17 07:02:04 51°15.473 2°53.718 341.1 10.5 328 9.6
2009-09-17 07:02:08 51°15.483 2°53.709 341.6 10.4 328 9.6
2009-09-17 07:02:13 51°15.495 2°53.696 341.7 10.4 328 9.9
2009-09-17 07:02:19 51°15.51 2°53.682 341.7 10.5 329 10.2
2009-09-17 07:02:24 51°15.522 2°53.67 341.9 10.5 329 10.1
2009-09-17 07:02:29 51°15.535 2°53.658 342 10.4 329 9.2
2009-09-17 07:02:33 51°15.545 2°53.648 341.5 10.4 328 9.7
2009-09-17 07:02:39 51°15.559 2°53.633 341 10.3 328 9.8
2009-09-17 07:02:44 51°15.571 2°53.621 341.2 10.3 329 10.8
2009-09-17 07:02:49 51°15.584 2°53.61 341.7 10.3 329 10.4
2009-09-17 07:02:53 51°15.593 2°53.6 342.3 10.3 328 10
2009-09-17 07:02:59 51°15.608 2°53.585 341.5 10.4 328 10.4
2009-09-17 07:03:04 51°15.62 2°53.573 341.1 10.4 328 10.5
2009-09-17 07:03:09 51°15.633 2°53.561 340.9 10.3 328 9.9
2009-09-17 07:03:13 51°15.642 2°53.552 341.5 10.3 329 10.5
2009-09-17 07:03:18 51°15.654 2°53.54 341.9 10.3 329 10.9
2009-09-17 07:03:24 51°15.669 2°53.526 341.5 10.5 328 11.2
2009-09-17 07:03:29 51°15.682 2°53.513 341.3 10.5 328 10.8
2009-09-17 07:03:33 51°15.691 2°53.503 341 10.5 327 10.3
2009-09-17 07:03:38 51°15.704 2°53.49 340.7 10.6 327 10.6
2009-09-17 07:03:44 51°15.718 2°53.475 340.6 10.6 327 10.7
2009-09-17 07:03:49 51°15.731 2°53.461 340.7 10.6 325 10.4
2009-09-17 07:03:54 51°15.743 2°53.448 340.6 10.5 326 11.1
2009-09-17 07:03:59 51°15.755 2°53.436 341.9 10.5 329 10.9
2009-09-17 07:04:04 51°15.768 2°53.425 343.4 10.4 329 10.8
2009-09-17 07:04:09 51°15.78 2°53.413 343.4 10.4 330 10.6
2009-09-17 07:04:14 51°15.793 2°53.402 343.7 10.4 330 11.1
2009-09-17 07:04:19 51°15.805 2°53.391 344.8 10.1 334 10.7
2009-09-17 07:04:24 51°15.818 2°53.382 346.5 10.2 335 10.8
2009-09-17 07:04:28 51°15.828 2°53.374 347.7 10.2 336 11
2009-09-17 07:04:33 51°15.842 2°53.365 348.6 10.3 335 11.2
2009-09-17 07:04:39 51°15.857 2°53.354 348.1 10.3 336 11.2
2009-09-17 07:04:44 51°15.87 2°53.344 348.7 10.3 336 11
2009-09-17 07:04:48 51°15.881 2°53.337 349.4 10.3 338 11.3
2009-09-17 07:04:53 51°15.894 2°53.328 349.8 10.2 337 11
2009-09-17 07:04:59 51°15.909 2°53.318 349.9 10.2 337 11.3
2009-09-17 07:05:04 51°15.923 2°53.31 349.7 10.2 338 11.7
2009-09-17 07:05:08 51°15.933 2°53.304 350.5 10.2 339 11.3
2009-09-17 07:05:13 51°15.946 2°53.295 350.5 9.9 340 10.6
2009-09-17 07:05:18 51°15.959 2°53.288 350.5 10 338 11.8
2009-09-17 07:05:24 51°15.975 2°53.277 349.2 10 338 11.9
2009-09-17 07:05:29 51°15.988 2°53.269 349.5 10 338 10.9
2009-09-17 07:05:33 51°15.998 2°53.261 349.2 10.1 336 11.5
2009-09-17 07:05:38 51°16.011 2°53.252 348.4 10.1 336 11.3
2009-09-17 07:05:44 51°16.026 2°53.241 348.3 10 336 11.1
2009-09-17 07:05:49 51°16.039 2°53.232 347.9 10.2 335 11.6
2009-09-17 07:05:53 51°16.049 2°53.225 348.1 10.2 336 11.4
2009-09-17 07:05:58 51°16.062 2°53.215 347.7 10.2 336 11.2
2009-09-17 07:06:04 51°16.077 2°53.205 348.3 10.1 337 11.1
2009-09-17 07:06:09 51°16.09 2°53.195 348.2 10.2 335 11.7
2009-09-17 07:06:13 51°16.101 2°53.187 347.7 10.1 335 11.3
2009-09-17 07:06:18 51°16.113 2°53.178 347.5 10.1 334 11.9
2009-09-17 07:06:24 51°16.128 2°53.166 347.4 10.1 335 12.2
2009-09-17 07:06:28 51°16.138 2°53.159 347.9 10.1 335 12.3
2009-09-17 07:06:33 51°16.15 2°53.15 347.9 10.1 335 12
2009-09-17 07:06:38 51°16.163 2°53.14 347.8 10 334 11.5
2009-09-17 07:06:44 51°16.177 2°53.129 347.6 9.8 335 11.1
2009-09-17 07:06:49 51°16.19 2°53.12 347.8 9.8 336 11.2
2009-09-17 07:06:53 51°16.2 2°53.113 348.4 9.5 336 11.1
2009-09-17 07:06:59 51°16.214 2°53.103 348.4 9.5 336 11.8
2009-09-17 07:07:04 51°16.227 2°53.094 348.4 9.8 336 12.1
2009-09-17 07:07:09 51°16.239 2°53.085 348.3 9.8 337 12
2009-09-17 07:07:13 51°16.249 2°53.079 348.8 9.9 338 11.9
2009-09-17 07:07:19 51°16.264 2°53.068 348.6 10 337 11.8
2009-09-17 07:07:24 51°16.277 2°53.06 348.4 10 337 11.7
2009-09-17 07:07:29 51°16.29 2°53.051 347.8 10.1 335 11.2
2009-09-17 07:07:33 51°16.3 2°53.043 347 10.1 335 11.3
2009-09-17 07:07:38 51°16.313 2°53.034 346.9 10 335 11.9
2009-09-17 07:07:44 51°16.329 2°53.023 347.4 10.1 336 12.3
2009-09-17 07:07:49 51°16.341 2°53.013 347.3 10.2 335 12.3
2009-09-17 07:07:53 51°16.351 2°53.007 348.5 9.8 336 11.5
2009-09-17 07:07:58 51°16.364 2°52.997 347.3 9.8 336 11.1
2009-09-17 07:08:04 51°16.379 2°52.988 348.4 9.8 339 11.4
2009-09-17 07:08:09 51°16.391 2°52.979 348.2 9.9 336 12
2009-09-17 07:08:13 51°16.402 2°52.972 347.7 10 336 11.9
2009-09-17 07:08:18 51°16.414 2°52.962 346.7 10.1 335 11.6
2009-09-17 07:08:24 51°16.43 2°52.951 346.3 10.1 336 11.7
2009-09-17 07:08:29 51°16.442 2°52.942 346.7 10.1 337 11.5
2009-09-17 07:08:33 51°16.453 2°52.935 346.3 10.3 335 11.5
2009-09-17 07:08:38 51°16.466 2°52.926 347 10.2 338 11.3
2009-09-17 07:08:44 51°16.481 2°52.915 347 10.1 336 11.3
2009-09-17 07:08:49 51°16.494 2°52.907 347.4 10.1 338 11.8
2009-09-17 07:08:53 51°16.504 2°52.899 347.2 10.1 337 11.3
2009-09-17 07:08:58 51°16.518 2°52.891 347.9 9.9 338 11.2
2009-09-17 07:09:04 51°16.532 2°52.88 347.4 10 337 12
2009-09-17 07:09:09 51°16.545 2°52.872 347.8 9.9 338 11.7
2009-09-17 07:09:13 51°16.555 2°52.865 347.7 10 337 11.2
2009-09-17 07:09:18 51°16.568 2°52.857 347.8 9.9 337 11.1
2009-09-17 07:09:24 51°16.584 2°52.847 347.9 9.8 337 10.9
2009-09-17 07:09:29 51°16.596 2°52.839 347 9.8 338 11
2009-09-17 07:09:33 51°16.606 2°52.832 347.7 10 338 11.5
2009-09-17 07:09:38 51°16.619 2°52.824 347.5 10 337 11.2
2009-09-17 07:09:44 51°16.634 2°52.813 347 10 338 10.9
2009-09-17 07:09:49 51°16.647 2°52.805 347.2 9.9 337 10.5
2009-09-17 07:09:54 51°16.66 2°52.797 347.3 10.1 338 10.8
2009-09-17 07:09:59 51°16.673 2°52.789 347.3 10.1 339 10.4
2009-09-17 07:10:04 51°16.686 2°52.781 347.5 9.9 337 9.9
2009-09-17 07:10:09 51°16.698 2°52.772 347.3 9.6 336 10.4
2009-09-17 07:10:14 51°16.71 2°52.763 347.2 9.6 336 10.3
2009-09-17 07:10:19 51°16.722 2°52.754 346.7 9.7 336 10.3
2009-09-17 07:10:24 51°16.735 2°52.746 347.1 9.6 338 9.8
2009-09-17 07:10:29 51°16.747 2°52.737 347 9.7 336 9.3
2009-09-17 07:10:33 51°16.757 2°52.731 347.2 9.7 338 9.6
2009-09-17 07:10:38 51°16.77 2°52.722 347 9.8 334 9.8
2009-09-17 07:10:44 51°16.785 2°52.713 346.4 9.7 340 10.2
2009-09-17 07:10:49 51°16.797 2°52.704 347.7 9.4 336 9.3
2009-09-17 07:10:54 51°16.808 2°52.697 346.7 9 337 9.7
2009-09-17 07:10:59 51°16.82 2°52.689 347.2 9.3 337 8.9
2009-09-17 07:11:04 51°16.832 2°52.682 347.5 9.4 338 9.5
2009-09-17 07:11:09 51°16.844 2°52.673 347.8 9.5 338 9.2
2009-09-17 07:11:14 51°16.856 2°52.666 348.3 9.3 339 8.7
2009-09-17 07:11:19 51°16.868 2°52.658 347.7 9.4 336 9.5
2009-09-17 07:11:24 51°16.88 2°52.65 348.3 9.6 338 9.6
2009-09-17 07:11:29 51°16.893 2°52.641 347.7 9.7 336 9
2009-09-17 07:11:33 51°16.903 2°52.635 347.9 9.7 339 9.1
2009-09-17 07:11:39 51°16.918 2°52.625 348 9.8 338 9.2
2009-09-17 07:11:44 51°16.93 2°52.617 347.7 9.8 336 9
2009-09-17 07:11:49 51°16.943 2°52.609 347.7 9.7 339 9.5
2009-09-17 07:11:53 51°16.953 2°52.602 347 9.9 336 9.6
2009-09-17 07:11:59 51°16.968 2°52.592 347 9.8 337 9.4
2009-09-17 07:12:04 51°16.98 2°52.584 347.1 9.7 336 9.2
2009-09-17 07:12:09 51°16.993 2°52.575 346.3 9.6 338 9.4
2009-09-17 07:12:13 51°17.003 2°52.569 347.4 9.7 338 9.8
2009-09-17 07:12:18 51°17.016 2°52.561 347.6 9.8 337 9.8
2009-09-17 07:12:24 51°17.031 2°52.551 347.5 9.8 341 9.6
2009-09-17 07:12:29 51°17.043 2°52.544 348.9 9.8 339 9.2
2009-09-17 07:12:33 51°17.054 2°52.538 349.5 9.8 341 9.1
2009-09-17 07:12:38 51°17.067 2°52.531 350 9.9 340 9.3
2009-09-17 07:12:44 51°17.082 2°52.522 350.3 9.7 341 9
2009-09-17 07:12:49 51°17.095 2°52.515 350.3 9.8 342 9.5
2009-09-17 07:12:54 51°17.108 2°52.508 350.6 9.6 341 9.1
2009-09-17 07:12:59 51°17.12 2°52.502 352.1 9.5 344 9.5
2009-09-17 07:13:04 51°17.133 2°52.497 353.5 9.6 344 9.6
2009-09-17 07:13:08 51°17.143 2°52.492 353.9 9.6 345 10.1
2009-09-17 07:13:14 51°17.159 2°52.487 356.5 9.5 348 9.6
2009-09-17 07:13:19 51°17.171 2°52.483 356.5 9.5 348 9.2
2009-09-17 07:13:24 51°17.184 2°52.479 358.1 9.6 350 9.5
2009-09-17 07:13:28 51°17.195 2°52.476 359 9.6 348 9.1
2009-09-17 07:13:34 51°17.211 2°52.472 358.9 9.5 351 9.8
2009-09-17 07:13:39 51°17.224 2°52.469 -999 9.5 353 9.9
2009-09-17 07:13:44 51°17.237 2°52.466 1.3 9.4 353 9.6
2009-09-17 07:13:48 51°17.247 2°52.464 2 9.5 354 10.1
2009-09-17 07:13:53 51°17.261 2°52.462 3.4 9.5 354 9.7
2009-09-17 07:13:59 51°17.276 2°52.46 3.7 9.5 355 10
2009-09-17 07:14:04 51°17.289 2°52.46 4.5 9.4 358 9.7
2009-09-17 07:14:08 51°17.3 2°52.459 5.8 9.6 357 10
2009-09-17 07:14:13 51°17.313 2°52.459 6.5 9.6 359 9.9
2009-09-17 07:14:19 51°17.329 2°52.459 7.3 9.5 359 9.6
2009-09-17 07:14:24 51°17.342 2°52.458 7.6 9.5 359 9.7
2009-09-17 07:14:29 51°17.355 2°52.458 7.6 9.5 -999 10.3
2009-09-17 07:14:33 51°17.365 2°52.458 8.1 9.4 1 10.3
2009-09-17 07:14:38 51°17.378 2°52.459 8.7 9.5 -999 10.1
2009-09-17 07:14:44 51°17.394 2°52.458 8.4 9.4 -999 10
2009-09-17 07:14:49 51°17.407 2°52.458 8.6 9.4 1 9.6
2009-09-17 07:14:53 51°17.417 2°52.459 8.8 9.3 -999 9.7
2009-09-17 07:14:58 51°17.43 2°52.459 9.1 9.4 -999 10.3
2009-09-17 07:15:04 51°17.446 2°52.459 8.7 9.4 -999 9.8
2009-09-17 07:15:09 51°17.459 2°52.459 8.1 9.3 -999 9.7
2009-09-17 07:15:13 51°17.469 2°52.459 8.6 9.4 -999 10.6
2009-09-17 07:15:18 51°17.482 2°52.459 8.4 9.4 1 10.2
2009-09-17 07:15:24 51°17.498 2°52.458 8.4 9.4 359 9.7
2009-09-17 07:15:28 51°17.508 2°52.458 8.5 9.3 359 9.6
2009-09-17 07:15:33 51°17.521 2°52.458 8.5 9.4 359 10.4
2009-09-17 07:15:38 51°17.534 2°52.458 8.6 9.3 1 10.1
2009-09-17 07:15:44 51°17.55 2°52.458 8.8 9.5 -999 10.5
2009-09-17 07:15:49 51°17.562 2°52.458 8.2 9.4 -999 10.4
2009-09-17 07:15:54 51°17.575 2°52.457 8.1 9.3 359 9.8
2009-09-17 07:15:59 51°17.588 2°52.457 7.9 9.3 358 9.9
2009-09-17 07:16:04 51°17.601 2°52.456 7.6 9.3 359 9.8
2009-09-17 07:16:09 51°17.614 2°52.456 8.1 9.4 359 9.8
2009-09-17 07:16:13 51°17.625 2°52.456 7.7 9.3 359 9.9
2009-09-17 07:16:19 51°17.64 2°52.457 9.4 9.4 2 10.2
2009-09-17 07:16:24 51°17.653 2°52.456 10.2 9.3 -999 9.9
2009-09-17 07:16:29 51°17.666 2°52.458 10.4 9.3 4 10.3
2009-09-17 07:16:33 51°17.676 2°52.459 11 9.3 3 10.9
2009-09-17 07:16:38 51°17.688 2°52.46 11.5 9.2 6 10.5
2009-09-17 07:16:44 51°17.704 2°52.462 12.4 9.2 2 10.2
2009-09-17 07:16:49 51°17.716 2°52.463 11.7 9.1 5 9.7
2009-09-17 07:16:53 51°17.726 2°52.464 11.9 9 4 9.6
2009-09-17 07:16:58 51°17.738 2°52.466 12.9 9 6 9.9
2009-09-17 07:17:04 51°17.754 2°52.467 12.8 9.2 3 10
2009-09-17 07:17:09 51°17.766 2°52.468 11.8 9.1 3 9.9
2009-09-17 07:17:13 51°17.777 2°52.47 12.1 9.2 3 10.2
2009-09-17 07:17:18 51°17.789 2°52.47 12 9.3 3 10.4
2009-09-17 07:17:24 51°17.805 2°52.473 12 9.3 5 10.4
2009-09-17 07:17:29 51°17.817 2°52.473 12 9.2 2 9.7
2009-09-17 07:17:33 51°17.828 2°52.475 12.4 9.1 4 10.7
2009-09-17 07:17:38 51°17.84 2°52.475 12 9.3 2 10.3
2009-09-17 07:17:44 51°17.855 2°52.478 12.4 8.9 5 9.9
2009-09-17 07:17:49 51°17.868 2°52.478 12.7 9 3 9.7
2009-09-17 07:17:53 51°17.878 2°52.48 13.3 8.8 7 10
2009-09-17 07:17:58 51°17.89 2°52.482 14.2 8.9 5 10.2
2009-09-17 07:18:04 51°17.905 2°52.486 14.8 9.1 7 10.7
2009-09-17 07:18:09 51°17.917 2°52.487 15.1 9 5 10.9
2009-09-17 07:18:13 51°17.927 2°52.49 15.9 9 10 10.2
2009-09-17 07:18:18 51°17.939 2°52.492 15.5 8.7 6 9.4
2009-09-17 07:18:24 51°17.953 2°52.496 16.3 8.6 8 9.7
2009-09-17 07:18:29 51°17.965 2°52.498 16.6 8.8 7 10.5
2009-09-17 07:18:34 51°17.977 2°52.501 16.1 8.8 9 10
2009-09-17 07:18:39 51°17.989 2°52.504 16.6 8.8 8 9.7
2009-09-17 07:18:44 51°18.001 2°52.506 16.4 8.5 7 9.4
2009-09-17 07:18:49 51°18.012 2°52.509 15.7 8.6 8 9.7
2009-09-17 07:18:53 51°18.022 2°52.513 18.2 8.6 13 9.9
2009-09-17 07:18:58 51°18.033 2°52.518 21.1 8.7 16 10.3
2009-09-17 07:19:04 51°18.047 2°52.525 22.3 8.5 19 10.4
2009-09-17 07:19:09 51°18.058 2°52.532 25.5 8.5 24 9.9
2009-09-17 07:19:13 51°18.066 2°52.539 29.5 8.6 25 10
2009-09-17 07:19:18 51°18.077 2°52.547 30.9 8.5 27 10.6
2009-09-17 07:19:24 51°18.089 2°52.56 33.3 8.5 32 10.8
2009-09-17 07:19:29 51°18.099 2°52.569 34.8 8.7 30 10.3
2009-09-17 07:19:34 51°18.109 2°52.58 36.4 8.6 34 10
2009-09-17 07:19:39 51°18.119 2°52.59 37.8 8.5 33 9.7
2009-09-17 07:19:44 51°18.128 2°52.602 39.8 8.5 39 10
2009-09-17 07:19:49 51°18.136 2°52.616 43.9 8.7 44 10.3
2009-09-17 07:19:54 51°18.144 2°52.63 47 8.6 47 10.2
2009-09-17 07:19:59 51°18.152 2°52.645 48.6 8.7 51 10.4
2009-09-17 07:20:04 51°18.159 2°52.66 51.2 8.8 51 10.5
2009-09-17 07:20:08 51°18.165 2°52.672 52.3 8.8 53 10.4
2009-09-17 07:20:14 51°18.174 2°52.691 53.8 8.9 56 10.5
2009-09-17 07:20:19 51°18.18 2°52.707 54.7 8.8 57 10.5
2009-09-17 07:20:24 51°18.187 2°52.724 56.4 8.8 58 10.7
2009-09-17 07:20:28 51°18.193 2°52.737 56.7 8.9 56 10.9
2009-09-17 07:20:33 51°18.199 2°52.754 57.2 8.9 59 10.5
2009-09-17 07:20:39 51°18.207 2°52.774 58.1 9 57 10.7
2009-09-17 07:20:44 51°18.213 2°52.791 57.6 9.1 60 11.2
2009-09-17 07:20:48 51°18.219 2°52.805 58.2 9 59 10.6
2009-09-17 07:20:53 51°18.225 2°52.823 58.4 8.9 58 10.2
2009-09-17 07:20:59 51°18.232 2°52.842 58.8 8.8 60 9.9
2009-09-17 07:21:04 51°18.238 2°52.86 60 8.8 60 10.7
2009-09-17 07:21:08 51°18.243 2°52.873 59 8.8 59 10.8
2009-09-17 07:21:13 51°18.249 2°52.891 59.4 9 59 10.5
2009-09-17 07:21:18 51°18.256 2°52.908 59.3 9 59 10.3
2009-09-17 07:21:24 51°18.263 2°52.929 59.6 8.9 58 10.6
2009-09-17 07:21:29 51°18.27 2°52.945 58.9 9 58 10.7
2009-09-17 07:21:33 51°18.274 2°52.959 58.5 9.1 62 10.7
2009-09-17 07:21:38 51°18.282 2°52.975 57.7 9 57 10.6
2009-09-17 07:21:44 51°18.289 2°52.996 58.5 9 58 10.6
2009-09-17 07:21:49 51°18.296 2°53.013 57.8 9 59 10.9
2009-09-17 07:21:53 51°18.301 2°53.027 58 9 56 10.9
2009-09-17 07:21:58 51°18.308 2°53.044 57.8 9.1 57 10.8
2009-09-17 07:22:04 51°18.316 2°53.064 57.6 9 58 10.2
2009-09-17 07:22:09 51°18.323 2°53.081 58.2 9.1 56 10.3
2009-09-17 07:22:13 51°18.328 2°53.096 57.8 9.2 59 10.8
2009-09-17 07:22:18 51°18.335 2°53.112 57.9 9.1 57 10.8
2009-09-17 07:22:24 51°18.343 2°53.133 57.8 9.1 57 10.3
2009-09-17 07:22:29 51°18.35 2°53.15 56.6 9.1 57 10.5
2009-09-17 07:22:33 51°18.355 2°53.164 57.3 9.1 55 10.3
2009-09-17 07:22:38 51°18.362 2°53.181 56.8 9.1 56 10.6
2009-09-17 07:22:44 51°18.371 2°53.201 56.3 9.1 56 10.5
2009-09-17 07:22:49 51°18.378 2°53.218 56.6 9.1 55 10.5
2009-09-17 07:22:53 51°18.383 2°53.231 56.3 9.1 57 10.3
2009-09-17 07:22:59 51°18.391 2°53.252 57.5 9.1 58 10.6
2009-09-17 07:23:04 51°18.398 2°53.268 57.3 9.2 56 11.1
2009-09-17 07:23:09 51°18.405 2°53.286 56.9 9.2 59 11
2009-09-17 07:23:13 51°18.41 2°53.3 57.9 9.2 58 11
2009-09-17 07:23:19 51°18.418 2°53.32 58 9.3 59 11
2009-09-17 07:23:24 51°18.425 2°53.338 57.9 9.3 58 11.3
2009-09-17 07:23:29 51°18.432 2°53.355 57.4 9.2 60 11.2
2009-09-17 07:23:33 51°18.437 2°53.368 58 9.2 60 11.2
2009-09-17 07:23:38 51°18.444 2°53.386 58.5 9.3 61 11.2
2009-09-17 07:23:44 51°18.451 2°53.407 58.7 9.2 60 10.8
2009-09-17 07:23:49 51°18.458 2°53.425 59.6 9.2 57 10.5
2009-09-17 07:23:53 51°18.462 2°53.44 59.4 9.2 63 10.8
2009-09-17 07:23:58 51°18.469 2°53.457 59.8 9.1 59 10.6
2009-09-17 07:24:04 51°18.476 2°53.478 59.6 9.2 60 11.1
2009-09-17 07:24:09 51°18.483 2°53.496 58.6 9.2 59 11
2009-09-17 07:24:13 51°18.488 2°53.509 58 9.1 60 10.8
2009-09-17 07:24:18 51°18.495 2°53.526 58.6 9.2 58 10.9
2009-09-17 07:24:24 51°18.503 2°53.547 58.2 9 58 10.7
2009-09-17 07:24:29 51°18.509 2°53.565 58.9 9.1 60 10.9
2009-09-17 07:24:33 51°18.514 2°53.579 59.2 9.3 60 11.4
2009-09-17 07:24:38 51°18.521 2°53.596 58.2 9.2 59 11.2
2009-09-17 07:24:44 51°18.528 2°53.617 58.2 9.2 59 11
2009-09-17 07:24:49 51°18.535 2°53.634 58.1 9.2 57 10.8
2009-09-17 07:24:53 51°18.541 2°53.648 58.1 9.2 58 10.7
2009-09-17 07:24:58 51°18.547 2°53.665 57.8 9.2 57 10.6
2009-09-17 07:25:04 51°18.555 2°53.687 58.5 9 61 10.4
2009-09-17 07:25:09 51°18.562 2°53.703 58.4 9 57 10
2009-09-17 07:25:13 51°18.567 2°53.718 59 9 59 10.2
2009-09-17 07:25:19 51°18.574 2°53.738 59.8 9 60 10.8
2009-09-17 07:25:24 51°18.582 2°53.754 57.7 9 59 10.8
2009-09-17 07:25:29 51°18.588 2°53.772 58.1 9 59 10.7
2009-09-17 07:25:33 51°18.593 2°53.786 58.5 9.1 59 11.1
2009-09-17 07:25:39 51°18.6 2°53.807 59.2 9 62 10.5
2009-09-17 07:25:44 51°18.606 2°53.824 60.4 9 61 10.7
2009-09-17 07:25:49 51°18.612 2°53.841 60 9 60 10.8
2009-09-17 07:25:54 51°18.618 2°53.859 59.8 9.2 62 11
2009-09-17 07:25:58 51°18.623 2°53.874 60.5 9.2 61 11
2009-09-17 07:26:04 51°18.63 2°53.895 60.5 9.2 61 10.6
2009-09-17 07:26:09 51°18.636 2°53.913 61.4 9.1 62 10.6
2009-09-17 07:26:14 51°18.642 2°53.93 61 9.2 61 10.8
2009-09-17 07:26:19 51°18.647 2°53.949 62.5 9.1 66 10.6
2009-09-17 07:26:24 51°18.653 2°53.967 64.3 9.1 63 11
2009-09-17 07:26:29 51°18.657 2°53.986 63.7 9.2 69 11.4
2009-09-17 07:26:34 51°18.663 2°54.004 64.3 9.2 67 11.2
2009-09-17 07:26:39 51°18.667 2°54.024 65.8 9.2 67 10.9
2009-09-17 07:26:44 51°18.672 2°54.042 65.5 9.3 68 10.4
2009-09-17 07:26:48 51°18.676 2°54.058 66.6 9.2 68 10.9
2009-09-17 07:26:54 51°18.681 2°54.081 66.9 9.3 71 11.3
2009-09-17 07:26:59 51°18.686 2°54.1 66.6 9.3 69 11
2009-09-17 07:27:04 51°18.691 2°54.119 67.8 9.3 67 10.7
2009-09-17 07:27:08 51°18.694 2°54.134 66.9 9.2 70 11
2009-09-17 07:27:13 51°18.698 2°54.154 68.6 9.4 72 11.3
2009-09-17 07:27:19 51°18.704 2°54.177 67.1 9.3 68 11.2
2009-09-17 07:27:24 51°18.708 2°54.197 68 9.4 71 11.3
2009-09-17 07:27:29 51°18.714 2°54.216 67.5 9.3 65 10.8
2009-09-17 07:27:34 51°18.717 2°54.236 68.3 9.4 74 10.9
2009-09-17 07:27:39 51°18.721 2°54.255 68.3 9.3 69 10.8
2009-09-17 07:27:44 51°18.726 2°54.274 67.4 9.2 71 10.8
2009-09-17 07:27:49 51°18.73 2°54.293 67.4 9.3 69 11
2009-09-17 07:27:53 51°18.734 2°54.309 66.5 9.4 69 10.9
2009-09-17 07:27:58 51°18.738 2°54.328 67 9.2 69 10.6
2009-09-17 07:28:04 51°18.743 2°54.351 67.6 9.2 69 11.2
2009-09-17 07:28:09 51°18.748 2°54.369 66.8 9.2 68 11
2009-09-17 07:28:13 51°18.751 2°54.385 67.4 9.3 71 10.9
2009-09-17 07:28:18 51°18.756 2°54.404 67.1 9.2 68 11
2009-09-17 07:28:24 51°18.761 2°54.427 67.7 9.3 74 11.4
2009-09-17 07:28:29 51°18.766 2°54.446 67.1 9.3 66 11.2
2009-09-17 07:28:33 51°18.769 2°54.462 67.5 9.2 72 11
2009-09-17 07:28:38 51°18.774 2°54.48 67.3 9.2 68 11.1
2009-09-17 07:28:44 51°18.779 2°54.503 67.2 9.2 68 11.1
2009-09-17 07:28:49 51°18.784 2°54.522 66.3 9.3 71 10.9
2009-09-17 07:28:54 51°18.789 2°54.541 66.9 9.2 66 10.8
2009-09-17 07:28:59 51°18.792 2°54.561 66.7 9.3 73 11
2009-09-17 07:29:04 51°18.798 2°54.58 67.5 9.3 67 11.1
2009-09-17 07:29:09 51°18.802 2°54.6 66.9 9.2 71 10.7
2009-09-17 07:29:14 51°18.806 2°54.619 68 9.2 70 10.8
2009-09-17 07:29:19 51°18.811 2°54.638 68.3 9.3 68 10.6
2009-09-17 07:29:24 51°18.815 2°54.658 67.3 9.3 71 11
2009-09-17 07:29:28 51°18.818 2°54.673 67.7 9.3 70 10.8
2009-09-17 07:29:34 51°18.824 2°54.696 67.1 9.3 69 10.4
2009-09-17 07:29:39 51°18.828 2°54.716 67.3 9.2 68 10.3
2009-09-17 07:29:44 51°18.833 2°54.735 67.1 9.3 69 10.5
2009-09-17 07:29:48 51°18.836 2°54.751 67.5 9.3 70 11.1
2009-09-17 07:29:53 51°18.841 2°54.77 67 9.2 70 10.7
2009-09-17 07:29:59 51°18.846 2°54.793 67.6 9.2 69 10.3
2009-09-17 07:30:04 51°18.85 2°54.812 66.5 9.1 70 10.8
2009-09-17 07:30:09 51°18.854 2°54.831 66.9 9.2 72 11.2
2009-09-17 07:30:13 51°18.858 2°54.846 67.3 9.2 68 11.2
2009-09-17 07:30:19 51°18.863 2°54.869 66.9 9.3 73 11.4
2009-09-17 07:30:24 51°18.868 2°54.888 65.7 9.1 66 10.9
2009-09-17 07:30:29 51°18.872 2°54.907 67.1 9.2 73 11
2009-09-17 07:30:33 51°18.876 2°54.922 67.4 9.1 65 10.6
2009-09-17 07:30:38 51°18.88 2°54.942 67.6 9.3 74 11.2
2009-09-17 07:30:44 51°18.886 2°54.964 66.1 9.2 72 11.5
2009-09-17 07:30:49 51°18.889 2°54.983 67.4 9.1 73 11.2
2009-09-17 07:30:53 51°18.894 2°54.998 67 9 67 10.7
2009-09-17 07:30:58 51°18.898 2°55.017 67.2 9.1 73 10.9
2009-09-17 07:31:04 51°18.903 2°55.039 67.3 8.9 68 11.4
2009-09-17 07:31:09 51°18.907 2°55.058 66.4 9 71 10.7
2009-09-17 07:31:13 51°18.911 2°55.073 67.4 9.1 65 10.6
2009-09-17 07:31:18 51°18.915 2°55.093 66.7 9.3 72 10.8
2009-09-17 07:31:24 51°18.921 2°55.115 66.9 9.1 69 11
2009-09-17 07:31:29 51°18.925 2°55.134 66.7 9.1 70 10.4
2009-09-17 07:31:33 51°18.929 2°55.15 67.5 9.2 70 10.6
2009-09-17 07:31:38 51°18.933 2°55.169 67.6 9.2 68 10.6
2009-09-17 07:31:44 51°18.939 2°55.191 67.3 9.2 69 10.7
2009-09-17 07:31:49 51°18.943 2°55.211 67 9.3 68 10.8
2009-09-17 07:31:53 51°18.947 2°55.226 65.9 9.3 69 11.1
2009-09-17 07:31:58 51°18.952 2°55.245 65.9 9.4 71 10.9
2009-09-17 07:32:04 51°18.957 2°55.268 66.6 9.3 68 10.7
2009-09-17 07:32:09 51°18.962 2°55.287 65 9.3 74 10.7
2009-09-17 07:32:13 51°18.965 2°55.302 67.8 9.2 67 10.7
2009-09-17 07:32:19 51°18.971 2°55.325 65.4 9.3 72 11
2009-09-17 07:32:24 51°18.975 2°55.344 66.5 9.1 68 11.1
2009-09-17 07:32:29 51°18.98 2°55.363 65.5 9.2 72 10.9
2009-09-17 07:32:34 51°18.985 2°55.381 66.6 9 68 11
2009-09-17 07:32:38 51°18.988 2°55.396 65.2 9.2 74 11.6
2009-09-17 07:32:44 51°18.994 2°55.418 67 9 66 10.6
2009-09-17 07:32:49 51°18.998 2°55.437 65.5 9.1 70 10.7
2009-09-17 07:32:54 51°19.002 2°55.456 66.3 9 70 11
2009-09-17 07:32:58 51°19.006 2°55.47 66.5 9 70 10.9
2009-09-17 07:33:04 51°19.011 2°55.493 66.7 9.1 67 11
2009-09-17 07:33:09 51°19.016 2°55.512 65.4 9.1 68 10.7
2009-09-17 07:33:13 51°19.02 2°55.527 66.5 9.1 69 10.5
2009-09-17 07:33:18 51°19.025 2°55.545 65.9 9.2 71 11.5
2009-09-17 07:33:24 51°19.03 2°55.568 65.5 9.1 68 11.1
2009-09-17 07:33:29 51°19.035 2°55.586 65.6 9.1 68 10.8
2009-09-17 07:33:33 51°19.039 2°55.601 65.2 9.1 66 10.8
2009-09-17 07:33:39 51°19.044 2°55.624 66 9.2 68 10.7
2009-09-17 07:33:44 51°19.049 2°55.643 66.3 9.1 67 10.9
2009-09-17 07:33:49 51°19.054 2°55.662 66 9.4 71 11.2
2009-09-17 07:33:53 51°19.058 2°55.677 66.3 9.4 67 10.7
2009-09-17 07:33:59 51°19.064 2°55.7 65.1 9.2 67 10.4
2009-09-17 07:34:04 51°19.068 2°55.719 66.6 9.3 67 10.4
2009-09-17 07:34:09 51°19.073 2°55.738 66.1 9.3 68 10.3
2009-09-17 07:34:13 51°19.077 2°55.754 66.2 9.3 67 10.4
2009-09-17 07:34:19 51°19.083 2°55.776 65.5 9.2 68 10.3
2009-09-17 07:34:24 51°19.088 2°55.796 65.6 9.3 68 10.9
2009-09-17 07:34:29 51°19.093 2°55.815 65.9 9.3 68 10.2
2009-09-17 07:34:33 51°19.096 2°55.83 66.7 9.3 68 10
2009-09-17 07:34:39 51°19.102 2°55.853 65.6 9.2 71 10.4
2009-09-17 07:34:44 51°19.106 2°55.872 66.9 9.2 69 11
2009-09-17 07:34:49 51°19.11 2°55.891 66.7 9.3 71 10.9
2009-09-17 07:34:53 51°19.114 2°55.906 66.5 9.2 66 10.9
2009-09-17 07:34:59 51°19.119 2°55.929 65.6 9.3 72 10.8
2009-09-17 07:35:04 51°19.125 2°55.948 66.1 9.1 64 10.8
2009-09-17 07:35:09 51°19.129 2°55.966 64.6 9.1 70 10.6
2009-09-17 07:35:14 51°19.134 2°55.985 65.3 9.1 65 10.7
2009-09-17 07:35:19 51°19.139 2°56.004 65.4 9.2 69 10.4
2009-09-17 07:35:24 51°19.144 2°56.022 65.5 9.2 66 10.4
2009-09-17 07:35:29 51°19.148 2°56.042 65.7 9.4 70 10.7
2009-09-17 07:35:34 51°19.154 2°56.061 65.2 9.3 66 10.8
2009-09-17 07:35:39 51°19.158 2°56.08 65.1 9.3 68 10.8
2009-09-17 07:35:44 51°19.164 2°56.098 64.1 9.3 67 10.8
2009-09-17 07:35:49 51°19.169 2°56.117 64.7 9.3 67 10.7
2009-09-17 07:35:54 51°19.174 2°56.137 65.4 9.4 68 10.9
2009-09-17 07:35:59 51°19.179 2°56.155 64.3 9.3 66 10.4
2009-09-17 07:36:04 51°19.184 2°56.174 64.8 9.3 65 10.4
2009-09-17 07:36:09 51°19.189 2°56.193 64.1 9.3 66 10.5
2009-09-17 07:36:14 51°19.194 2°56.212 64.3 9.3 66 10.7
2009-09-17 07:36:19 51°19.199 2°56.231 64.9 9.3 69 10.9
2009-09-17 07:36:24 51°19.205 2°56.25 65.4 9.2 65 10.4
2009-09-17 07:36:28 51°19.209 2°56.265 64.2 9.3 68 10.5
2009-09-17 07:36:34 51°19.214 2°56.288 65.4 9.3 67 10.5
2009-09-17 07:36:39 51°19.22 2°56.306 65.4 9.3 65 10.4
2009-09-17 07:36:44 51°19.224 2°56.325 64.6 9.3 71 10.5
2009-09-17 07:36:49 51°19.23 2°56.344 66 9.2 64 10
2009-09-17 07:36:53 51°19.233 2°56.36 65.8 9.3 67 10
2009-09-17 07:36:59 51°19.239 2°56.383 65.8 9.3 67 10.6
2009-09-17 07:37:04 51°19.244 2°56.401 65.7 9.2 68 10.3
2009-09-17 07:37:09 51°19.249 2°56.421 66.7 9.3 68 10
2009-09-17 07:37:13 51°19.253 2°56.436 65.5 9.3 67 10
2009-09-17 07:37:18 51°19.257 2°56.455 66.5 9.2 70 10.5
2009-09-17 07:37:24 51°19.263 2°56.477 66.2 9.2 68 10.6
2009-09-17 07:37:29 51°19.268 2°56.496 65.7 9.3 66 10.3
2009-09-17 07:37:33 51°19.272 2°56.512 66.2 9.4 70 10.2
2009-09-17 07:37:38 51°19.277 2°56.531 66 9.3 69 10.9
2009-09-17 07:37:44 51°19.283 2°56.553 65.9 9.3 69 10.3
2009-09-17 07:37:49 51°19.287 2°56.573 65.7 9.4 68 10.2
2009-09-17 07:37:53 51°19.291 2°56.588 65.8 9.3 70 10.2
2009-09-17 07:37:58 51°19.296 2°56.607 66.6 9.1 66 10.1
2009-09-17 07:38:04 51°19.301 2°56.63 66.1 9.3 74 10.9
2009-09-17 07:38:09 51°19.306 2°56.648 66.2 9.1 65 10.3
2009-09-17 07:38:13 51°19.309 2°56.664 66.1 9.3 70 9.9
2009-09-17 07:38:18 51°19.315 2°56.683 65.3 9.2 64 10
2009-09-17 07:38:24 51°19.32 2°56.707 66 9.4 71 10.5
2009-09-17 07:38:29 51°19.325 2°56.725 65.7 9.2 65 10.1
2009-09-17 07:38:34 51°19.33 2°56.744 65.4 9.3 69 9.9
2009-09-17 07:38:39 51°19.335 2°56.763 66.3 9.2 67 10.4
2009-09-17 07:38:44 51°19.339 2°56.782 65.7 9.4 71 11.1
2009-09-17 07:38:49 51°19.344 2°56.801 65 9.2 69 11
2009-09-17 07:38:54 51°19.348 2°56.82 65.7 9.3 71 11
2009-09-17 07:38:59 51°19.354 2°56.837 64.7 9 64 10.2
2009-09-17 07:39:04 51°19.358 2°56.857 65.4 9.1 69 10
2009-09-17 07:39:09 51°19.363 2°56.875 65.8 9.1 66 9.9
2009-09-17 07:39:13 51°19.367 2°56.891 65.7 9.1 69 10
2009-09-17 07:39:19 51°19.373 2°56.913 66 9.1 68 10.4
2009-09-17 07:39:24 51°19.378 2°56.931 65.2 9.1 69 10.2
2009-09-17 07:39:29 51°19.382 2°56.951 66.2 9.2 67 10
2009-09-17 07:39:33 51°19.387 2°56.966 65.2 9.1 66 9.8
2009-09-17 07:39:38 51°19.391 2°56.985 66.2 9.2 71 10
2009-09-17 07:39:44 51°19.397 2°57.007 65.9 9.1 64 10
2009-09-17 07:39:49 51°19.401 2°57.027 65.6 9.3 72 10.4
2009-09-17 07:39:53 51°19.405 2°57.041 65.5 9.2 64 10.2
2009-09-17 07:39:58 51°19.41 2°57.06 64.9 9.2 69 10
2009-09-17 07:40:04 51°19.416 2°57.082 65.1 9.2 66 10.4
2009-09-17 07:40:09 51°19.421 2°57.101 64.8 9.2 69 10.5
2009-09-17 07:40:13 51°19.425 2°57.116 64.8 9 64 9.8
2009-09-17 07:40:18 51°19.43 2°57.135 65.4 9.2 68 10.1
2009-09-17 07:40:24 51°19.436 2°57.157 64.7 9.2 69 10.2
2009-09-17 07:40:29 51°19.441 2°57.176 65.4 9.1 66 9.9
2009-09-17 07:40:33 51°19.445 2°57.191 65 9.1 66 10
2009-09-17 07:40:38 51°19.45 2°57.209 64.7 9.2 66 10.5
2009-09-17 07:40:44 51°19.456 2°57.232 64.3 9.2 69 10.6
2009-09-17 07:40:49 51°19.461 2°57.25 64.7 9.2 66 10.4
2009-09-17 07:40:53 51°19.465 2°57.265 65 9.2 67 10
2009-09-17 07:40:58 51°19.47 2°57.284 64.7 9.1 68 10.2
2009-09-17 07:41:04 51°19.476 2°57.306 65.2 9.2 69 10.5
2009-09-17 07:41:09 51°19.481 2°57.325 65.5 9.1 67 10.5
2009-09-17 07:41:13 51°19.485 2°57.34 64.8 9.2 66 10.3
2009-09-17 07:41:19 51°19.491 2°57.363 65.4 9.2 67 10.3
2009-09-17 07:41:24 51°19.496 2°57.381 64.9 9.1 66 10.4
2009-09-17 07:41:29 51°19.5 2°57.4 65.2 9.3 70 10.3
2009-09-17 07:41:34 51°19.506 2°57.419 65.1 9.2 64 9.8
2009-09-17 07:41:39 51°19.51 2°57.438 65.4 9.3 70 10.5
2009-09-17 07:41:44 51°19.516 2°57.456 64 9.2 65 10.4
2009-09-17 07:41:49 51°19.521 2°57.475 64.6 9.4 67 10.4
2009-09-17 07:41:54 51°19.526 2°57.494 64.5 9.3 68 10.1
2009-09-17 07:41:58 51°19.53 2°57.509 65.3 9.4 69 10.7
2009-09-17 07:42:04 51°19.536 2°57.532 65.1 9.1 66 9.6
2009-09-17 07:42:09 51°19.54 2°57.551 65.8 9.1 70 10
2009-09-17 07:42:14 51°19.545 2°57.57 65.8 9.1 68 10.2
2009-09-17 07:42:19 51°19.549 2°57.589 66.4 9.1 71 10.1
2009-09-17 07:42:24 51°19.554 2°57.607 66.1 9.1 67 10.2
2009-09-17 07:42:29 51°19.559 2°57.626 65.4 9.2 67 9.9
2009-09-17 07:42:34 51°19.564 2°57.645 66.1 9.2 67 10.3
2009-09-17 07:42:39 51°19.569 2°57.664 65.2 9.3 69 10.2
2009-09-17 07:42:44 51°19.574 2°57.683 65.3 9.3 66 10.2
2009-09-17 07:42:48 51°19.578 2°57.698 65.4 9.4 70 10.7
2009-09-17 07:42:53 51°19.583 2°57.716 64.3 9.3 70 10.9
2009-09-17 07:42:59 51°19.588 2°57.74 65.5 9.3 70 10.7
2009-09-17 07:43:04 51°19.594 2°57.757 64 9.1 66 9.9
2009-09-17 07:43:09 51°19.598 2°57.777 64.7 9.2 68 9.8
2009-09-17 07:43:13 51°19.603 2°57.791 64.9 9.2 66 10.2
2009-09-17 07:43:19 51°19.608 2°57.814 65.4 9.2 69 10
2009-09-17 07:43:24 51°19.613 2°57.833 65.7 9.1 66 9.6
2009-09-17 07:43:29 51°19.618 2°57.851 65.7 9.1 68 9.8
2009-09-17 07:43:33 51°19.622 2°57.866 65.4 9.1 65 9.8
2009-09-17 07:43:39 51°19.628 2°57.889 65 9.2 65 9.8
2009-09-17 07:43:44 51°19.633 2°57.908 65 9.3 68 10.6
2009-09-17 07:43:49 51°19.638 2°57.927 64.7 9.3 67 10.2
2009-09-17 07:43:53 51°19.642 2°57.942 65.5 9.2 68 9.9
2009-09-17 07:43:58 51°19.647 2°57.961 65.8 9.2 68 9.6
2009-09-17 07:44:04 51°19.652 2°57.984 67.2 9.3 69 10.1
2009-09-17 07:44:09 51°19.657 2°58.003 66.1 9.2 67 9.8
2009-09-17 07:44:13 51°19.659 2°58.019 67.3 9.4 71 10
2009-09-17 07:44:18 51°19.665 2°58.038 66.8 9.2 70 10
2009-09-17 07:44:24 51°19.67 2°58.061 68.3 9.4 71 10
2009-09-17 07:44:29 51°19.674 2°58.081 67.7 9.3 69 10.2
2009-09-17 07:44:34 51°19.679 2°58.1 67.1 9.2 72 9.7
2009-09-17 07:44:39 51°19.683 2°58.119 68.7 9.3 67 9.8
2009-09-17 07:44:44 51°19.687 2°58.139 67.6 9.3 71 10.1
2009-09-17 07:44:49 51°19.692 2°58.159 67.6 9.4 72 10.2
2009-09-17 07:44:54 51°19.696 2°58.178 68.5 9.4 70 10.2
2009-09-17 07:44:59 51°19.701 2°58.197 67.3 9.4 68 9.9
2009-09-17 07:45:04 51°19.705 2°58.218 67.6 9.5 72 10
2009-09-17 07:45:09 51°19.71 2°58.237 67.6 9.4 70 10.3
2009-09-17 07:45:14 51°19.714 2°58.257 68.3 9.5 72 10.2
2009-09-17 07:45:19 51°19.718 2°58.276 68.3 9.3 71 9.7
2009-09-17 07:45:24 51°19.722 2°58.296 69 9.5 73 10.2
2009-09-17 07:45:28 51°19.726 2°58.312 67.9 9.5 69 10
2009-09-17 07:45:34 51°19.731 2°58.336 68.1 9.3 72 9.5
2009-09-17 07:45:39 51°19.735 2°58.355 68.8 9.2 73 9.7
2009-09-17 07:45:44 51°19.739 2°58.374 69 9.3 70 9.8
2009-09-17 07:45:49 51°19.743 2°58.394 68.5 9.2 71 9.9
2009-09-17 07:45:53 51°19.747 2°58.409 67.9 9.3 69 9.8
2009-09-17 07:45:59 51°19.752 2°58.433 68.4 9.4 70 9.7
2009-09-17 07:46:04 51°19.757 2°58.452 67.7 9.3 72 9.6
2009-09-17 07:46:09 51°19.76 2°58.472 69.3 9.3 70 9.5
2009-09-17 07:46:13 51°19.764 2°58.488 68.5 9.3 73 10
2009-09-17 07:46:18 51°19.769 2°58.507 68.7 9.3 73 9.8
2009-09-17 07:46:24 51°19.773 2°58.531 69.8 9.5 71 9.6
2009-09-17 07:46:29 51°19.778 2°58.55 68.1 9.3 69 9.6
2009-09-17 07:46:33 51°19.78 2°58.567 68.8 9.4 74 9.8
2009-09-17 07:46:38 51°19.786 2°58.586 68.3 9.3 67 9.2
2009-09-17 07:46:44 51°19.79 2°58.61 69.3 9.3 68 10.1
2009-09-17 07:46:49 51°19.794 2°58.629 67.9 9.4 73 10
2009-09-17 07:46:53 51°19.798 2°58.645 68.8 9.4 71 9.7
2009-09-17 07:46:58 51°19.802 2°58.664 68.7 9.4 71 9.7
2009-09-17 07:47:04 51°19.807 2°58.688 68.4 9.4 72 9.7
2009-09-17 07:47:09 51°19.811 2°58.708 69.7 9.5 71 9.7
2009-09-17 07:47:13 51°19.815 2°58.724 68.8 9.4 69 9.5
2009-09-17 07:47:18 51°19.819 2°58.744 69.3 9.4 72 9.4
2009-09-17 07:47:24 51°19.824 2°58.767 69.5 9.5 71 9.7
2009-09-17 07:47:29 51°19.829 2°58.787 68.3 9.4 70 9.5
2009-09-17 07:47:33 51°19.831 2°58.803 69.8 9.5 73 9.7
2009-09-17 07:47:38 51°19.837 2°58.822 67.6 9.3 66 9.1
2009-09-17 07:47:44 51°19.841 2°58.846 68.5 9.4 72 9.3
2009-09-17 07:47:49 51°19.847 2°58.865 67.9 9.5 67 9.7
2009-09-17 07:47:54 51°19.85 2°58.886 67.5 9.5 73 10
2009-09-17 07:47:59 51°19.856 2°58.905 67.8 9.5 68 10
2009-09-17 07:48:04 51°19.861 2°58.924 66.8 9.3 67 9.6
2009-09-17 07:48:09 51°19.865 2°58.944 66.9 9.3 73 9.9
2009-09-17 07:48:13 51°19.868 2°58.959 67 9.3 68 10.2
2009-09-17 07:48:19 51°19.875 2°58.982 65.3 9.3 68 10
2009-09-17 07:48:24 51°19.879 2°59.001 66.2 9.4 68 9.4
2009-09-17 07:48:29 51°19.885 2°59.02 66.5 9.4 64 9.4
2009-09-17 07:48:34 51°19.889 2°59.04 66.6 9.6 72 9.7
2009-09-17 07:48:38 51°19.893 2°59.055 66.8 9.4 64 9.6
2009-09-17 07:48:44 51°19.899 2°59.079 66.3 9.5 73 10
2009-09-17 07:48:49 51°19.904 2°59.097 66.7 9.5 64 10.2
2009-09-17 07:48:53 51°19.908 2°59.113 65.2 9.4 71 9.7
2009-09-17 07:48:58 51°19.913 2°59.132 66.7 9.5 66 10.2
2009-09-17 07:49:04 51°19.919 2°59.156 64.8 9.4 68 9.5
2009-09-17 07:49:09 51°19.923 2°59.175 66.7 9.3 69 9.7
2009-09-17 07:49:13 51°19.929 2°59.189 64.4 9.3 65 9.5
2009-09-17 07:49:18 51°19.932 2°59.209 66.1 9.4 67 9.6
2009-09-17 07:49:24 51°19.939 2°59.232 65.1 9.4 67 9.6
2009-09-17 07:49:29 51°19.944 2°59.252 66.1 9.4 69 9.5
2009-09-17 07:49:33 51°19.948 2°59.266 66.2 9.4 67 9.4
2009-09-17 07:49:39 51°19.954 2°59.29 66.5 9.4 66 9.3
2009-09-17 07:49:44 51°19.959 2°59.309 65.8 9.4 70 9.9
2009-09-17 07:49:49 51°19.964 2°59.328 66.1 9.4 65 9.4
2009-09-17 07:49:53 51°19.968 2°59.344 66.2 9.3 67 9.1
2009-09-17 07:49:59 51°19.974 2°59.367 66.1 9.3 67 9.5
2009-09-17 07:50:04 51°19.979 2°59.386 66 9.5 68 9.6
2009-09-17 07:50:09 51°19.984 2°59.405 65.9 9.4 66 9.3
2009-09-17 07:50:13 51°19.987 2°59.422 66.9 9.4 69 9.2
2009-09-17 07:50:19 51°19.994 2°59.444 66.4 9.4 68 10
2009-09-17 07:50:24 51°19.998 2°59.464 66.1 9.4 69 10.2
2009-09-17 07:50:29 51°20.004 2°59.483 65.4 9.3 67 9.9
2009-09-17 07:50:33 51°20.007 2°59.498 66.1 9.3 69 9.8
2009-09-17 07:50:39 51°20.013 2°59.521 66.7 9.4 67 9.5
2009-09-17 07:50:44 51°20.019 2°59.54 66 9.4 69 9.3
2009-09-17 07:50:49 51°20.023 2°59.56 67.1 9.4 69 9.4
2009-09-17 07:50:54 51°20.028 2°59.579 66.9 9.4 67 9.1
2009-09-17 07:50:59 51°20.033 2°59.598 66.3 9.4 66 9.6
2009-09-17 07:51:04 51°20.038 2°59.618 65.4 9.6 73 9.6
2009-09-17 07:51:09 51°20.043 2°59.637 66.1 9.3 64 9.8
2009-09-17 07:51:14 51°20.047 2°59.657 65.7 9.6 74 10.5
2009-09-17 07:51:19 51°20.052 2°59.676 66.8 9.4 65 9.9
2009-09-17 07:51:24 51°20.056 2°59.696 67.5 9.4 71 10
2009-09-17 07:51:29 51°20.062 2°59.714 65.9 9.4 64 9.9
2009-09-17 07:51:34 51°20.066 2°59.734 65.9 9.4 71 9.7
2009-09-17 07:51:39 51°20.072 2°59.753 65.5 9.4 65 9.9
2009-09-17 07:51:44 51°20.077 2°59.772 65.3 9.5 70 9.9
2009-09-17 07:51:49 51°20.082 2°59.791 66.1 9.5 67 9.9
2009-09-17 07:51:54 51°20.087 2°59.81 66 9.4 69 9.4
2009-09-17 07:51:59 51°20.092 2°59.829 66.4 9.3 67 9.5
2009-09-17 07:52:04 51°20.097 2°59.849 66.1 9.3 70 9.7
2009-09-17 07:52:09 51°20.101 2°59.868 67.6 9.3 68 9.7
2009-09-17 07:52:14 51°20.106 2°59.888 66.2 9.4 71 10.2
2009-09-17 07:52:19 51°20.111 2°59.906 66.6 9.2 66 9.8
2009-09-17 07:52:24 51°20.115 2°59.926 65.8 9.4 71 10.5
2009-09-17 07:52:29 51°20.121 2°59.944 66 9.2 66 9.6
2009-09-17 07:52:33 51°20.124 2°59.96 66.5 9.3 67 9.3
2009-09-17 07:52:39 51°20.131 2°59.982 66.1 9.4 66 9.6
2009-09-17 07:52:44 51°20.136 3°0.002 65.8 9.4 69 9.4
2009-09-17 07:52:49 51°20.141 3°0.021 66.1 9.5 65 9.4
2009-09-17 07:52:53 51°20.145 3°0.036 65.7 9.4 69 9.3
2009-09-17 07:52:59 51°20.151 3°0.059 65.9 9.4 65 9.6
2009-09-17 07:53:04 51°20.155 3°0.079 65.8 9.5 71 9.9
2009-09-17 07:53:09 51°20.161 3°0.098 65.7 9.4 64 10.1
2009-09-17 07:53:13 51°20.165 3°0.113 64.3 9.5 70 9.6
2009-09-17 07:53:18 51°20.17 3°0.132 65.7 9.3 63 9.3
2009-09-17 07:53:24 51°20.176 3°0.155 65.6 9.5 71 9.7
2009-09-17 07:53:29 51°20.181 3°0.174 66.6 9.3 65 9.6
2009-09-17 07:53:33 51°20.186 3°0.189 65.2 9.3 65 9.1
2009-09-17 07:53:38 51°20.19 3°0.209 66.5 9.4 68 9.7
2009-09-17 07:53:44 51°20.197 3°0.232 65.7 9.3 68 9.8
2009-09-17 07:53:49 51°20.201 3°0.251 66.7 9.2 69 9.4
2009-09-17 07:53:53 51°20.205 3°0.267 67 9.3 69 9.7
2009-09-17 07:53:58 51°20.21 3°0.286 67.5 9.2 67 9.5
2009-09-17 07:54:04 51°20.215 3°0.309 67.6 9.3 69 9.3
2009-09-17 07:54:09 51°20.22 3°0.327 66.4 9.2 65 9.5
2009-09-17 07:54:14 51°20.225 3°0.347 66.1 9.3 70 9.6
2009-09-17 07:54:19 51°20.229 3°0.365 67 9.2 67 9.1
2009-09-17 07:54:24 51°20.234 3°0.384 67.3 9.2 70 9.4
2009-09-17 07:54:29 51°20.239 3°0.404 68 9.3 67 9.6
2009-09-17 07:54:34 51°20.243 3°0.423 66.7 9.4 70 9.7
2009-09-17 07:54:39 51°20.248 3°0.442 67.6 9.4 67 9.7
2009-09-17 07:54:44 51°20.253 3°0.462 67.6 9.4 70 9.6
2009-09-17 07:54:49 51°20.259 3°0.481 66.9 9.4 65 9.7
2009-09-17 07:54:54 51°20.263 3°0.501 66.9 9.6 71 10
2009-09-17 07:54:59 51°20.269 3°0.519 66.4 9.5 66 9.9
2009-09-17 07:55:04 51°20.273 3°0.54 66.6 9.6 69 10.1
2009-09-17 07:55:09 51°20.279 3°0.558 66.1 9.5 65 10.1
2009-09-17 07:55:13 51°20.283 3°0.574 66.1 9.5 69 9.6
2009-09-17 07:55:19 51°20.289 3°0.597 66.7 9.5 66 9.8
2009-09-17 07:55:24 51°20.294 3°0.617 66.2 9.6 68 9.6
2009-09-17 07:55:29 51°20.298 3°0.637 66.9 9.7 70 10.2
2009-09-17 07:55:33 51°20.302 3°0.652 66.5 9.6 68 9.7
2009-09-17 07:55:38 51°20.307 3°0.672 67 9.5 70 10
2009-09-17 07:55:44 51°20.314 3°0.694 65.9 9.4 67 9.5
2009-09-17 07:55:49 51°20.318 3°0.714 66.1 9.4 67 8.9
2009-09-17 07:55:54 51°20.323 3°0.734 67.1 9.4 69 9.3
2009-09-17 07:55:58 51°20.327 3°0.749 66.5 9.3 66 9.4
2009-09-17 07:56:04 51°20.332 3°0.773 67.1 9.4 69 10
2009-09-17 07:56:09 51°20.338 3°0.791 65.9 9.3 65 9.6
2009-09-17 07:56:14 51°20.343 3°0.811 66.4 9.4 68 9.4
2009-09-17 07:56:18 51°20.347 3°0.826 66.4 9.3 64 9.6
2009-09-17 07:56:24 51°20.352 3°0.85 66.3 9.5 70 10
2009-09-17 07:56:29 51°20.358 3°0.868 66.1 9.5 63 10
2009-09-17 07:56:34 51°20.363 3°0.888 65.5 9.5 71 10
2009-09-17 07:56:38 51°20.367 3°0.903 66.1 9.4 66 9.5
2009-09-17 07:56:44 51°20.374 3°0.926 65.6 9.5 64 9.7
2009-09-17 07:56:49 51°20.378 3°0.946 65.6 9.5 70 10.4
2009-09-17 07:56:54 51°20.383 3°0.966 65.9 9.6 70 10.8
2009-09-17 07:56:58 51°20.387 3°0.98 64.7 9.3 70 10.2
2009-09-17 07:57:04 51°20.392 3°1.004 67.6 9.2 68 9.6
2009-09-17 07:57:09 51°20.397 3°1.022 65.6 9.3 65 9.6
2009-09-17 07:57:14 51°20.402 3°1.041 65.4 9.3 69 9.7
2009-09-17 07:57:19 51°20.407 3°1.06 66.6 9.3 66 9.3
2009-09-17 07:57:24 51°20.412 3°1.079 66.3 9.4 68 9.8
2009-09-17 07:57:29 51°20.418 3°1.098 66.1 9.4 66 9.5
2009-09-17 07:57:34 51°20.422 3°1.118 66.1 9.5 70 9.4
2009-09-17 07:57:39 51°20.428 3°1.137 66.2 9.4 65 9.3
2009-09-17 07:57:44 51°20.432 3°1.157 66.8 9.4 67 9.3
2009-09-17 07:57:49 51°20.436 3°1.176 66.9 9.4 68 9.8
2009-09-17 07:57:54 51°20.441 3°1.196 66.1 9.5 70 10
2009-09-17 07:57:59 51°20.447 3°1.215 66.9 9.4 66 9.3
2009-09-17 07:58:04 51°20.451 3°1.234 66.1 9.4 68 9.2
2009-09-17 07:58:09 51°20.456 3°1.254 66.7 9.5 68 9.5
2009-09-17 07:58:14 51°20.461 3°1.273 67.2 9.6 67 9.6
2009-09-17 07:58:19 51°20.466 3°1.293 67.1 9.5 70 9.7
2009-09-17 07:58:24 51°20.47 3°1.313 66.7 9.5 70 9.6
2009-09-17 07:58:29 51°20.475 3°1.332 67.4 9.3 69 9.5
2009-09-17 07:58:34 51°20.48 3°1.35 66.1 9.2 69 9.6
2009-09-17 07:58:39 51°20.485 3°1.37 66.9 9.4 67 10.1
2009-09-17 07:58:44 51°20.49 3°1.388 64.7 9.3 70 10
2009-09-17 07:58:49 51°20.495 3°1.407 66.6 9.3 67 9.6
2009-09-17 07:58:54 51°20.5 3°1.427 66 9.4 68 9.9
2009-09-17 07:58:59 51°20.505 3°1.445 66.1 9.2 70 10
2009-09-17 07:59:04 51°20.51 3°1.464 66.6 9.3 70 10
2009-09-17 07:59:09 51°20.515 3°1.483 65.9 9.2 66 9.6
2009-09-17 07:59:13 51°20.519 3°1.498 66.1 9.3 66 9.3
2009-09-17 07:59:19 51°20.525 3°1.521 65.9 9.3 64 9.3
2009-09-17 07:59:24 51°20.53 3°1.54 65.5 9.2 71 9.4
2009-09-17 07:59:29 51°20.535 3°1.559 66.6 9.2 64 9.4
2009-09-17 07:59:33 51°20.538 3°1.574 65.6 9.3 70 9.6
2009-09-17 07:59:39 51°20.543 3°1.598 68.3 9.4 71 9.9
2009-09-17 07:59:44 51°20.547 3°1.618 69.9 9.3 76 9.1
2009-09-17 07:59:49 51°20.551 3°1.637 71.1 9.3 71 9.4
2009-09-17 07:59:53 51°20.554 3°1.653 70.5 9.4 78 9.6
2009-09-17 07:59:58 51°20.557 3°1.673 73.3 9.3 71 9.1
2009-09-17 08:00:04 51°20.56 3°1.698 72.7 9.4 80 9.8
2009-09-17 08:00:09 51°20.564 3°1.717 73.8 9.3 74 9.4
2009-09-17 08:00:14 51°20.566 3°1.737 74.2 9.3 78 9.3
2009-09-17 08:00:19 51°20.569 3°1.758 74.5 9.4 77 10
2009-09-17 08:00:24 51°20.572 3°1.778 73.8 9.5 78 9.7
2009-09-17 08:00:29 51°20.575 3°1.799 75.3 9.4 77 9.3
2009-09-17 08:00:34 51°20.578 3°1.819 74.2 9.5 78 9.9
2009-09-17 08:00:39 51°20.581 3°1.84 74.9 9.6 79 9.4
2009-09-17 08:00:44 51°20.584 3°1.86 75.1 9.5 77 9.8
2009-09-17 08:00:49 51°20.585 3°1.882 75.6 9.8 83 9.9
2009-09-17 08:00:54 51°20.59 3°1.902 74.7 9.6 73 9.7
2009-09-17 08:00:59 51°20.591 3°1.923 74.5 9.6 83 9.5
2009-09-17 08:01:04 51°20.595 3°1.944 76 9.6 74 9.6
2009-09-17 08:01:09 51°20.597 3°1.965 75.6 9.7 80 9.8
2009-09-17 08:01:14 51°20.601 3°1.986 74.9 9.6 79 9.7
2009-09-17 08:01:19 51°20.603 3°2.007 75.9 9.6 76 9.5
2009-09-17 08:01:24 51°20.606 3°2.027 74.8 9.5 79 9.5
2009-09-17 08:01:28 51°20.607 3°2.044 75.9 9.6 82 10.3
2009-09-17 08:01:34 51°20.61 3°2.069 75.9 9.6 81 10
2009-09-17 08:01:39 51°20.613 3°2.09 77 9.6 80 9.6
2009-09-17 08:01:44 51°20.615 3°2.11 77 9.5 79 8.6
2009-09-17 08:01:49 51°20.617 3°2.131 77 9.6 79 9.1
2009-09-17 08:01:53 51°20.619 3°2.148 76.4 9.5 81 9.5
2009-09-17 08:01:59 51°20.622 3°2.173 77 9.6 81 9.6
2009-09-17 08:02:04 51°20.624 3°2.194 77 9.7 78 9.3
2009-09-17 08:02:09 51°20.626 3°2.215 76.3 9.6 81 9.3
2009-09-17 08:02:13 51°20.628 3°2.232 77.3 9.5 77 9.3
2009-09-17 08:02:18 51°20.631 3°2.253 76.4 9.7 83 9.6
2009-09-17 08:02:24 51°20.634 3°2.278 77.1 9.7 78 9.8
2009-09-17 08:02:29 51°20.637 3°2.299 76 9.6 79 9.4
2009-09-17 08:02:33 51°20.638 3°2.316 77 9.8 81 9.4
2009-09-17 08:02:38 51°20.641 3°2.337 76.1 9.6 76 9
2009-09-17 08:02:44 51°20.644 3°2.362 76 9.7 82 9.5
2009-09-17 08:02:49 51°20.646 3°2.383 76.2 9.7 77 9.5
2009-09-17 08:02:53 51°20.648 3°2.4 75.7 9.8 82 9.5
2009-09-17 08:02:58 51°20.652 3°2.421 74.8 9.6 74 9.1
2009-09-17 08:03:04 51°20.654 3°2.446 76.4 9.7 81 9.3
2009-09-17 08:03:09 51°20.658 3°2.467 75.2 9.6 76 9.7
2009-09-17 08:03:13 51°20.66 3°2.483 75.2 9.7 85 9.5
2009-09-17 08:03:18 51°20.663 3°2.504 76.6 9.6 72 9.2
2009-09-17 08:03:24 51°20.666 3°2.529 74.9 9.6 84 8.9
2009-09-17 08:03:29 51°20.668 3°2.55 76.6 9.5 77 9.6
2009-09-17 08:03:34 51°20.67 3°2.571 76.1 9.6 82 9.6
2009-09-17 08:03:39 51°20.673 3°2.591 76.5 9.6 76 9.1
2009-09-17 08:03:44 51°20.675 3°2.613 76.1 9.6 79 9.2
2009-09-17 08:03:49 51°20.679 3°2.633 75.6 9.5 77 8.9
2009-09-17 08:03:54 51°20.681 3°2.654 77.6 9.6 80 9.2
2009-09-17 08:03:59 51°20.684 3°2.675 74.4 9.6 75 9.2
2009-09-17 08:04:04 51°20.686 3°2.696 75.6 9.6 77 9.2
2009-09-17 08:04:09 51°20.689 3°2.717 75.9 9.6 80 9.6
2009-09-17 08:04:14 51°20.692 3°2.737 75.2 9.6 79 9.4
2009-09-17 08:04:19 51°20.695 3°2.758 75.8 9.5 77 8.6
2009-09-17 08:04:24 51°20.697 3°2.779 76.3 9.6 75 9
2009-09-17 08:04:29 51°20.7 3°2.8 75.1 9.7 79 9.2
2009-09-17 08:04:34 51°20.702 3°2.821 75.6 9.7 80 9.8
2009-09-17 08:04:38 51°20.705 3°2.837 74.5 9.6 80 9
2009-09-17 08:04:44 51°20.708 3°2.862 75.9 9.5 73 9.1
2009-09-17 08:04:49 51°20.712 3°2.883 73.5 9.5 77 8.9
2009-09-17 08:04:54 51°20.713 3°2.904 75.9 9.6 78 9.4
2009-09-17 08:04:58 51°20.717 3°2.919 73 9.5 73 9.3
2009-09-17 08:05:04 51°20.72 3°2.945 74.6 9.6 79 9.3
2009-09-17 08:05:09 51°20.723 3°2.965 74.3 9.6 77 9.7
2009-09-17 08:05:14 51°20.726 3°2.986 74.1 9.5 76 8.9
2009-09-17 08:05:18 51°20.728 3°3.003 75.6 9.5 77 8.9
2009-09-17 08:05:24 51°20.733 3°3.027 73.3 9.5 78 8.9
2009-09-17 08:05:29 51°20.735 3°3.048 74.9 9.5 79 9
2009-09-17 08:05:34 51°20.738 3°3.068 75.4 9.5 75 8.8
2009-09-17 08:05:39 51°20.741 3°3.089 74.9 9.6 79 9.5